createdAt,value
2019-05-01T00:01:48.749Z,33.70
2019-05-01T00:04:55.173Z,31.50
2019-05-01T00:07:29.839Z,31.15
2019-05-01T00:09:58.938Z,31.85
2019-05-01T00:12:28.043Z,31.55
2019-05-01T00:14:57.204Z,32.78
2019-05-01T00:17:27.758Z,32.30
2019-05-01T00:19:56.945Z,32.08
2019-05-01T00:22:26.043Z,32.60
2019-05-01T00:24:55.131Z,32.42
2019-05-01T00:27:24.269Z,32.00
2019-05-01T00:29:53.342Z,31.90
2019-05-01T00:32:22.314Z,30.95
2019-05-01T00:34:51.326Z,30.80
2019-05-01T00:37:20.457Z,33.65
2019-05-01T00:39:49.529Z,32.35
2019-05-01T00:42:18.599Z,33.28
2019-05-01T00:44:47.516Z,36.45
2019-05-01T00:47:16.673Z,34.58
2019-05-01T00:49:45.656Z,30.62
2019-05-01T00:52:14.662Z,33.67
2019-05-01T00:54:45.422Z,35.73
2019-05-01T00:57:27.113Z,34.40
2019-05-01T01:00:04.431Z,31.05
2019-05-01T01:02:39.903Z,32.55
2019-05-01T01:05:09.251Z,33.33
2019-05-01T01:07:38.186Z,31.00
2019-05-01T01:10:08.556Z,34.67
2019-05-01T01:12:37.688Z,31.33
2019-05-01T01:15:07.445Z,33.25
2019-05-01T01:17:36.426Z,34.98
2019-05-01T01:20:05.630Z,33.13
2019-05-01T01:22:34.695Z,32.93
2019-05-01T01:25:04.090Z,33.48
2019-05-01T01:27:33.172Z,31.30
2019-05-01T01:30:02.235Z,36.55
2019-05-01T01:32:31.401Z,29.80
2019-05-01T01:35:00.489Z,30.43
2019-05-01T01:37:29.573Z,32.65
2019-05-01T01:39:58.660Z,31.52
2019-05-01T01:42:28.352Z,29.98
2019-05-01T01:45:16.544Z,29.18
2019-05-01T01:48:03.762Z,29.25
2019-05-01T01:50:32.819Z,29.77
2019-05-01T01:53:01.892Z,34.58
2019-05-01T01:55:30.978Z,31.27
2019-05-01T01:58:00.044Z,29.35
2019-05-01T02:00:37.174Z,33.13
2019-05-01T02:03:07.594Z,30.40
2019-05-01T02:05:40.257Z,30.82
2019-05-01T02:08:09.406Z,31.85
2019-05-01T02:10:42.938Z,32.40
2019-05-01T02:13:09.501Z,32.48
2019-05-01T02:15:38.598Z,31.73
2019-05-01T02:18:07.670Z,29.95
2019-05-01T02:20:36.738Z,33.88
2019-05-01T02:23:05.750Z,32.30
2019-05-01T02:25:37.013Z,32.08
2019-05-01T02:28:34.124Z,30.60
2019-05-01T02:31:27.956Z,31.90
2019-05-01T02:33:54.653Z,31.70
2019-05-01T02:36:25.374Z,30.88
2019-05-01T02:38:55.825Z,29.80
2019-05-01T02:41:27.939Z,33.90
2019-05-01T02:44:01.254Z,30.97
2019-05-01T02:46:32.159Z,28.23
2019-05-01T02:49:08.030Z,30.02
2019-05-01T02:51:40.094Z,31.95
2019-05-01T02:54:10.461Z,29.32
2019-05-01T02:57:08.887Z,29.35
2019-05-01T02:59:40.955Z,31.20
2019-05-01T03:02:10.769Z,27.90
2019-05-01T03:04:40.106Z,32.23
2019-05-01T03:07:10.062Z,32.58
2019-05-01T03:09:39.607Z,28.38
2019-05-01T03:12:09.396Z,30.48
2019-05-01T03:14:41.869Z,29.95
2019-05-01T03:20:08.654Z,29.80
2019-05-01T03:23:09.149Z,30.97
2019-05-01T03:25:38.635Z,29.50
2019-05-01T03:28:07.989Z,28.80
2019-05-01T03:30:37.315Z,29.25
2019-05-01T03:33:06.985Z,29.48
2019-05-01T03:35:36.647Z,28.32
2019-05-01T03:38:05.960Z,31.37
2019-05-01T03:40:35.021Z,28.17
2019-05-01T03:43:04.311Z,28.50
2019-05-01T03:45:34.336Z,28.47
2019-05-01T03:48:04.429Z,26.25
2019-05-01T03:50:33.592Z,29.67
2019-05-01T03:53:03.007Z,30.10
2019-05-01T03:55:32.667Z,29.98
2019-05-01T03:58:02.027Z,32.65
2019-05-01T04:00:42.279Z,29.85
2019-05-01T04:03:28.538Z,31.25
2019-05-01T04:05:57.886Z,29.52
2019-05-01T04:08:27.195Z,28.35
2019-05-01T04:10:56.917Z,30.68
2019-05-01T04:13:26.282Z,30.30
2019-05-01T04:15:56.272Z,28.12
2019-05-01T04:18:26.442Z,27.62
2019-05-01T04:20:56.056Z,27.42
2019-05-01T04:23:25.302Z,27.75
2019-05-01T04:25:54.768Z,28.40
2019-05-01T04:28:37.340Z,31.20
2019-05-01T04:31:16.979Z,28.65
2019-05-01T04:33:47.205Z,33.38
2019-05-01T04:36:22.555Z,29.90
2019-05-01T04:38:51.875Z,30.82
2019-05-01T04:41:20.944Z,29.12
2019-05-01T04:43:50.138Z,30.68
2019-05-01T04:46:19.492Z,30.20
2019-05-01T04:48:49.002Z,30.50
2019-05-01T04:51:18.284Z,30.35
2019-05-01T04:53:47.883Z,30.72
2019-05-01T04:56:17.031Z,26.00
2019-05-01T04:58:46.899Z,27.52
2019-05-01T05:01:15.897Z,29.23
2019-05-01T05:03:46.021Z,29.37
2019-05-01T05:06:15.924Z,27.87
2019-05-01T05:08:45.222Z,27.20
2019-05-01T05:11:20.023Z,26.85
2019-05-01T05:14:16.035Z,28.55
2019-05-01T05:16:55.155Z,26.82
2019-05-01T05:19:24.315Z,28.57
2019-05-01T05:21:53.654Z,27.10
2019-05-01T05:24:23.222Z,28.80
2019-05-01T05:26:52.391Z,34.73
2019-05-01T05:29:23.067Z,27.10
2019-05-01T05:31:53.138Z,29.85
2019-05-01T05:34:24.317Z,26.30
2019-05-01T05:36:57.421Z,32.05
2019-05-01T05:39:33.050Z,26.70
2019-05-01T05:42:04.740Z,26.37
2019-05-01T05:44:34.390Z,20.75
2019-05-01T05:47:03.478Z,29.92
2019-05-01T05:49:32.825Z,32.65
2019-05-01T05:52:20.483Z,29.15
2019-05-01T05:55:09.038Z,27.27
2019-05-01T05:57:57.869Z,26.52
2019-05-01T06:00:53.480Z,28.65
2019-05-01T06:03:42.031Z,26.73
2019-05-01T06:06:24.340Z,27.70
2019-05-01T06:08:56.890Z,26.90
2019-05-01T06:14:34.027Z,26.48
2019-05-01T06:17:16.587Z,23.70
2019-05-01T06:19:55.787Z,30.32
2019-05-01T06:22:45.140Z,29.42
2019-05-01T06:25:22.316Z,27.40
2019-05-01T06:27:50.437Z,26.35
2019-05-01T06:30:19.826Z,26.77
2019-05-01T06:32:48.992Z,31.77
2019-05-01T06:35:18.471Z,25.12
2019-05-01T06:38:14.649Z,27.62
2019-05-01T06:40:45.605Z,26.57
2019-05-01T06:43:40.231Z,25.40
2019-05-01T06:46:27.180Z,30.17
2019-05-01T06:49:01.011Z,27.22
2019-05-01T06:51:41.585Z,24.87
2019-05-01T06:54:16.442Z,27.73
2019-05-01T06:59:12.280Z,24.87
2019-05-01T07:01:41.798Z,26.27
2019-05-01T07:04:10.906Z,25.25
2019-05-01T07:06:40.063Z,26.40
2019-05-01T07:09:11.914Z,28.15
2019-05-01T07:11:42.394Z,23.05
2019-05-01T07:14:16.138Z,24.63
2019-05-01T07:16:42.674Z,24.15
2019-05-01T07:19:12.291Z,22.85
2019-05-01T07:21:41.415Z,22.42
2019-05-01T07:24:10.587Z,24.65
2019-05-01T07:26:43.775Z,24.12
2019-05-01T07:29:13.926Z,23.73
2019-05-01T07:34:16.682Z,24.43
2019-05-01T07:36:45.570Z,22.48
2019-05-01T07:39:14.693Z,22.15
2019-05-01T07:41:43.571Z,23.62
2019-05-01T07:44:20.231Z,21.23
2019-05-01T07:47:12.443Z,20.40
2019-05-01T07:49:54.981Z,18.75
2019-05-01T07:52:24.992Z,21.62
2019-05-01T07:54:55.819Z,21.62
2019-05-01T07:57:25.142Z,20.57
2019-05-01T07:59:58.149Z,21.20
2019-05-01T08:02:25.818Z,21.35
2019-05-01T08:04:56.035Z,19.62
2019-05-01T08:07:27.701Z,22.45
2019-05-01T08:09:55.902Z,21.30
2019-05-01T08:12:25.863Z,25.35
2019-05-01T08:14:55.147Z,20.62
2019-05-01T08:17:25.888Z,22.55
2019-05-01T08:20:03.364Z,22.65
2019-05-01T08:22:37.285Z,25.40
2019-05-01T08:25:06.433Z,20.70
2019-05-01T08:27:56.418Z,21.62
2019-05-01T08:30:34.774Z,25.97
2019-05-01T08:33:28.958Z,21.95
2019-05-01T08:35:58.140Z,23.42
2019-05-01T08:38:29.819Z,25.17
2019-05-01T08:40:57.935Z,23.77
2019-05-01T08:43:26.853Z,22.85
2019-05-01T08:46:16.585Z,22.52
2019-05-01T08:48:54.877Z,24.67
2019-05-01T08:51:24.062Z,25.68
2019-05-01T08:53:57.854Z,22.75
2019-05-01T08:56:23.773Z,21.85
2019-05-01T08:58:52.931Z,23.57
2019-05-01T09:01:21.851Z,22.98
2019-05-01T09:03:54.287Z,22.73
2019-05-01T09:06:33.762Z,24.37
2019-05-01T09:08:52.390Z,23.73
2019-05-01T09:11:21.470Z,17.17
2019-05-01T09:13:50.571Z,24.20
2019-05-01T09:16:23.447Z,21.93
2019-05-01T09:18:50.295Z,21.42
2019-05-01T09:21:19.365Z,20.15
2019-05-01T09:23:51.379Z,19.57
2019-05-01T09:26:37.280Z,17.52
2019-05-01T09:29:11.081Z,20.68
2019-05-01T09:31:40.585Z,17.52
2019-05-01T09:34:13.866Z,18.77
2019-05-01T09:36:40.578Z,19.80
2019-05-01T09:39:11.699Z,17.15
2019-05-01T09:41:43.082Z,25.68
2019-05-01T09:44:12.133Z,17.48
2019-05-01T09:46:41.267Z,19.45
2019-05-01T09:49:14.258Z,18.32
2019-05-01T09:52:03.324Z,19.45
2019-05-01T09:54:46.812Z,18.75
2019-05-01T09:57:16.856Z,16.17
2019-05-01T09:59:45.979Z,21.27
2019-05-01T10:02:15.127Z,16.80
2019-05-01T10:04:44.212Z,15.58
2019-05-01T10:07:13.349Z,22.22
2019-05-01T10:09:42.401Z,18.07
2019-05-01T10:12:13.089Z,17.92
2019-05-01T10:14:42.322Z,20.20
2019-05-01T10:17:13.510Z,17.67
2019-05-01T10:19:42.288Z,16.90
2019-05-01T10:22:11.347Z,21.27
2019-05-01T10:24:40.347Z,17.05
2019-05-01T10:27:12.127Z,15.55
2019-05-01T10:30:01.625Z,18.07
2019-05-01T10:32:37.618Z,18.23
2019-05-01T10:35:42.338Z,17.42
2019-05-01T10:38:09.411Z,17.42
2019-05-01T10:40:36.665Z,18.70
2019-05-01T10:43:05.727Z,17.05
2019-05-01T10:45:34.804Z,17.15
2019-05-01T10:48:03.800Z,17.50
2019-05-01T10:50:32.743Z,17.65
2019-05-01T10:53:01.746Z,18.00
2019-05-01T10:55:30.744Z,22.27
2019-05-01T10:57:59.970Z,20.85
2019-05-01T11:00:29.062Z,19.85
2019-05-01T11:02:58.075Z,16.17
2019-05-01T11:05:27.141Z,21.55
2019-05-01T11:07:56.137Z,17.98
2019-05-01T11:10:25.170Z,17.75
2019-05-01T11:12:54.087Z,16.93
2019-05-01T11:15:23.189Z,16.42
2019-05-01T11:17:52.262Z,16.32
2019-05-01T11:20:21.318Z,21.33
2019-05-01T11:22:50.504Z,16.77
2019-05-01T11:25:20.538Z,15.15
2019-05-01T11:27:49.637Z,17.65
2019-05-01T11:30:18.781Z,18.90
2019-05-01T11:32:56.798Z,16.93
2019-05-01T11:35:47.930Z,23.57
2019-05-01T11:38:24.405Z,19.92
2019-05-01T11:40:57.726Z,20.15
2019-05-01T11:43:26.749Z,20.57
2019-05-01T11:45:55.819Z,21.95
2019-05-01T11:48:29.659Z,17.42
2019-05-01T11:50:55.702Z,15.23
2019-05-01T11:53:24.863Z,21.25
2019-05-01T11:55:53.920Z,15.58
2019-05-01T11:58:22.913Z,15.98
2019-05-01T12:00:53.559Z,15.90
2019-05-01T12:03:22.481Z,15.95
2019-05-01T12:05:51.539Z,19.92
2019-05-01T12:08:20.630Z,18.73
2019-05-01T12:10:49.707Z,20.37
2019-05-01T12:13:18.719Z,19.77
2019-05-01T12:15:52.570Z,20.05
2019-05-01T12:18:21.555Z,17.12
2019-05-01T12:20:50.503Z,19.07
2019-05-01T12:23:19.529Z,18.95
2019-05-01T12:25:48.566Z,19.75
2019-05-01T12:28:17.567Z,23.92
2019-05-01T12:30:46.571Z,21.12
2019-05-01T12:33:15.523Z,19.10
2019-05-01T12:35:46.084Z,21.33
2019-05-01T12:38:15.208Z,17.92
2019-05-01T12:40:46.520Z,16.25
2019-05-01T12:43:15.621Z,17.90
2019-05-01T12:45:46.334Z,18.57
2019-05-01T12:48:15.347Z,19.82
2019-05-01T12:50:45.783Z,17.87
2019-05-01T12:53:22.579Z,18.07
2019-05-01T12:56:13.766Z,19.07
2019-05-01T12:58:43.323Z,16.70
2019-05-01T13:01:12.475Z,17.90
2019-05-01T13:03:41.621Z,19.25
2019-05-01T13:06:10.777Z,19.67
2019-05-01T13:08:39.903Z,19.92
2019-05-01T13:11:08.967Z,20.30
2019-05-01T13:13:38.045Z,17.10
2019-05-01T13:16:07.178Z,15.98
2019-05-01T13:18:36.258Z,19.82
2019-05-01T13:21:05.364Z,17.02
2019-05-01T13:23:34.356Z,18.55
2019-05-01T13:26:10.559Z,18.80
2019-05-01T13:28:49.285Z,20.55
2019-05-01T13:31:52.900Z,19.32
2019-05-01T13:34:22.051Z,16.93
2019-05-01T13:37:02.414Z,23.20
2019-05-01T13:39:21.939Z,19.57
2019-05-01T13:41:51.004Z,15.55
2019-05-01T13:44:20.155Z,18.25
2019-05-01T13:46:49.362Z,22.75
2019-05-01T13:49:18.432Z,15.98
2019-05-01T13:51:47.514Z,19.65
2019-05-01T13:54:16.563Z,16.65
2019-05-01T13:56:45.665Z,17.23
2019-05-01T13:59:15.233Z,17.40
2019-05-01T14:01:44.387Z,16.15
2019-05-01T14:04:15.212Z,14.73
2019-05-01T14:06:44.214Z,14.40
2019-05-01T14:09:16.372Z,13.98
2019-05-01T14:11:45.543Z,19.20
2019-05-01T14:14:14.711Z,15.32
2019-05-01T14:16:43.741Z,16.55
2019-05-01T14:19:12.762Z,15.55
2019-05-01T14:21:54.399Z,16.00
2019-05-01T14:24:44.772Z,20.13
2019-05-01T14:27:13.851Z,16.32
2019-05-01T14:29:42.853Z,18.80
2019-05-01T14:32:11.955Z,14.98
2019-05-01T14:34:40.938Z,18.80
2019-05-01T14:37:10.149Z,12.07
2019-05-01T14:39:39.283Z,15.68
2019-05-01T14:42:08.278Z,16.50
2019-05-01T14:44:37.357Z,15.40
2019-05-01T14:47:06.494Z,12.23
2019-05-01T14:49:35.530Z,12.53
2019-05-01T14:52:04.619Z,18.10
2019-05-01T14:54:33.795Z,20.57
2019-05-01T14:57:02.848Z,17.85
2019-05-01T14:59:31.930Z,23.35
2019-05-01T15:02:01.106Z,18.40
2019-05-01T15:04:30.178Z,20.40
2019-05-01T15:06:59.318Z,17.73
2019-05-01T15:09:28.474Z,20.10
2019-05-01T15:11:57.622Z,19.12
2019-05-01T15:14:54.834Z,20.95
2019-05-01T15:17:26.849Z,18.85
2019-05-01T15:24:56.626Z,18.85
2019-05-01T15:27:25.643Z,16.10
2019-05-01T15:29:54.718Z,16.05
2019-05-01T15:32:23.790Z,16.57
2019-05-01T15:34:52.791Z,14.85
2019-05-01T15:37:21.856Z,14.33
2019-05-01T15:39:56.271Z,16.60
2019-05-01T15:42:31.371Z,16.05
2019-05-01T15:45:00.472Z,17.67
2019-05-01T15:47:29.460Z,16.25
2019-05-01T15:49:58.615Z,13.98
2019-05-01T15:52:27.706Z,16.60
2019-05-01T15:54:56.622Z,21.20
2019-05-01T15:57:25.650Z,16.23
2019-05-01T15:59:54.633Z,14.90
2019-05-01T16:02:23.770Z,16.95
2019-05-01T16:04:52.770Z,17.55
2019-05-01T16:07:21.851Z,23.20
2019-05-01T16:09:51.038Z,21.80
2019-05-01T16:12:39.167Z,18.23
2019-05-01T16:15:13.962Z,17.62
2019-05-01T16:17:42.952Z,22.22
2019-05-01T16:20:12.091Z,21.40
2019-05-01T16:22:41.184Z,22.45
2019-05-01T16:25:10.334Z,22.62
2019-05-01T16:27:39.270Z,23.05
2019-05-01T16:30:09.142Z,22.25
2019-05-01T16:32:38.174Z,18.23
2019-05-01T16:35:07.323Z,19.60
2019-05-01T16:37:36.441Z,18.82
2019-05-01T16:40:23.298Z,18.85
2019-05-01T16:42:52.470Z,27.77
2019-05-01T16:45:21.702Z,18.20
2019-05-01T16:47:50.803Z,20.68
2019-05-01T16:50:19.997Z,19.95
2019-05-01T16:52:49.145Z,20.02
2019-05-01T16:55:18.708Z,23.60
2019-05-01T16:57:47.861Z,21.48
2019-05-01T17:00:17.661Z,24.02
2019-05-01T17:03:05.829Z,21.42
2019-05-01T17:05:53.954Z,19.17
2019-05-01T17:08:41.310Z,20.75
2019-05-01T17:11:11.027Z,22.98
2019-05-01T17:13:40.097Z,20.20
2019-05-01T17:16:09.266Z,19.87
2019-05-01T17:18:38.336Z,18.07
2019-05-01T17:21:07.440Z,16.00
2019-05-01T17:23:36.498Z,22.45
2019-05-01T17:26:05.544Z,25.77
2019-05-01T17:28:34.630Z,24.57
2019-05-01T17:31:03.770Z,22.85
2019-05-01T17:33:32.822Z,22.87
2019-05-01T17:36:01.823Z,24.67
2019-05-01T17:38:30.951Z,23.75
2019-05-01T17:40:59.947Z,26.35
2019-05-01T17:43:28.941Z,21.37
2019-05-01T17:45:57.925Z,19.02
2019-05-01T17:48:28.981Z,25.05
2019-05-01T17:51:00.121Z,20.82
2019-05-01T17:53:28.542Z,17.05
2019-05-01T17:55:57.602Z,18.07
2019-05-01T17:58:26.519Z,17.95
2019-05-01T18:01:27.580Z,18.35
2019-05-01T18:04:05.487Z,18.50
2019-05-01T18:06:36.917Z,16.90
2019-05-01T18:09:13.420Z,16.20
2019-05-01T18:11:39.007Z,17.42
2019-05-01T18:14:08.105Z,17.12
2019-05-01T18:16:37.171Z,20.72
2019-05-01T18:19:09.821Z,19.92
2019-05-01T18:21:39.517Z,24.98
2019-05-01T18:24:27.686Z,19.73
2019-05-01T18:27:20.210Z,18.92
2019-05-01T18:29:52.147Z,21.85
2019-05-01T18:32:36.487Z,22.63
2019-05-01T18:35:08.911Z,21.37
2019-05-01T18:37:44.187Z,23.75
2019-05-01T18:40:21.359Z,25.80
2019-05-01T18:42:50.355Z,18.55
2019-05-01T18:45:51.263Z,22.02
2019-05-01T18:48:21.234Z,23.22
2019-05-01T18:50:54.631Z,21.20
2019-05-01T18:53:21.480Z,21.30
2019-05-01T18:55:50.635Z,20.55
2019-05-01T18:58:19.718Z,20.32
2019-05-01T19:00:48.826Z,18.30
2019-05-01T19:03:18.008Z,20.75
2019-05-01T19:05:48.185Z,22.48
2019-05-01T19:08:17.582Z,24.80
2019-05-01T19:10:46.749Z,26.77
2019-05-01T19:13:16.468Z,24.23
2019-05-01T19:15:45.824Z,25.92
2019-05-01T19:18:14.815Z,21.65
2019-05-01T19:20:44.072Z,26.15
2019-05-01T19:23:13.288Z,21.40
2019-05-01T19:25:42.446Z,23.42
2019-05-01T19:28:13.129Z,19.60
2019-05-01T19:30:42.431Z,21.27
2019-05-01T19:33:11.552Z,21.48
2019-05-01T19:35:40.711Z,23.77
2019-05-01T19:38:10.015Z,22.17
2019-05-01T19:40:39.137Z,27.30
2019-05-01T19:43:08.342Z,23.18
2019-05-01T19:45:37.552Z,23.75
2019-05-01T19:48:06.798Z,27.02
2019-05-01T19:50:39.944Z,25.25
2019-05-01T19:53:10.033Z,24.92
2019-05-01T19:55:39.869Z,24.52
2019-05-01T19:58:08.559Z,25.75
2019-05-01T20:00:55.667Z,27.58
2019-05-01T20:03:25.279Z,24.67
2019-05-01T20:05:54.488Z,25.85
2019-05-01T20:08:23.633Z,29.37
2019-05-01T20:10:52.961Z,26.48
2019-05-01T20:13:21.969Z,30.68
2019-05-01T20:15:51.230Z,26.48
2019-05-01T20:18:20.406Z,29.65
2019-05-01T20:20:49.646Z,28.87
2019-05-01T20:23:18.742Z,29.52
2019-05-01T20:25:51.035Z,28.00
2019-05-01T20:28:20.108Z,27.95
2019-05-01T20:30:49.640Z,31.27
2019-05-01T20:33:18.720Z,29.75
2019-05-01T20:35:47.791Z,25.12
2019-05-01T20:38:16.858Z,28.02
2019-05-01T20:40:46.016Z,26.90
2019-05-01T20:43:15.047Z,30.72
2019-05-01T20:45:45.026Z,30.88
2019-05-01T20:48:18.586Z,28.55
2019-05-01T20:50:45.675Z,29.20
2019-05-01T20:53:14.722Z,25.65
2019-05-01T20:55:48.082Z,26.27
2019-05-01T20:58:18.503Z,26.82
2019-05-01T21:00:53.428Z,30.27
2019-05-01T21:03:21.116Z,26.05
2019-05-01T21:06:09.251Z,29.25
2019-05-01T21:08:57.494Z,31.62
2019-05-01T21:11:31.871Z,28.85
2019-05-01T21:14:16.906Z,25.97
2019-05-01T21:16:32.798Z,29.57
2019-05-01T21:19:02.774Z,26.00
2019-05-01T21:21:31.772Z,29.80
2019-05-01T21:24:00.785Z,32.00
2019-05-01T21:26:29.854Z,27.93
2019-05-01T21:28:58.931Z,29.98
2019-05-01T21:31:27.919Z,25.82
2019-05-01T21:33:57.009Z,29.35
2019-05-01T21:36:26.106Z,30.68
2019-05-01T21:38:55.220Z,30.32
2019-05-01T21:41:24.235Z,31.15
2019-05-01T21:43:53.315Z,30.37
2019-05-01T21:46:22.799Z,27.65
2019-05-01T21:48:53.546Z,29.63
2019-05-01T21:51:22.806Z,32.60
2019-05-01T21:53:52.907Z,31.85
2019-05-01T21:56:22.099Z,28.47
2019-05-01T21:58:51.119Z,31.23
2019-05-01T22:01:20.190Z,26.65
2019-05-01T22:03:52.485Z,27.50
2019-05-01T22:06:20.112Z,28.32
2019-05-01T22:08:49.294Z,28.12
2019-05-01T22:11:18.446Z,25.10
2019-05-01T22:13:47.572Z,28.75
2019-05-01T22:16:22.418Z,27.05
2019-05-01T22:19:03.214Z,29.52
2019-05-01T22:21:54.471Z,26.97
2019-05-01T22:24:39.150Z,29.20
2019-05-01T22:27:12.076Z,26.17
2019-05-01T22:29:47.374Z,24.98
2019-05-01T22:32:38.277Z,23.18
2019-05-01T22:35:21.831Z,23.27
2019-05-01T22:37:51.056Z,20.10
2019-05-01T22:40:27.540Z,20.25
2019-05-01T22:42:56.629Z,22.30
2019-05-01T22:45:25.773Z,22.87
2019-05-01T22:47:54.860Z,23.92
2019-05-01T22:50:23.938Z,21.65
2019-05-01T22:52:53.216Z,24.52
2019-05-01T22:55:25.449Z,22.93
2019-05-01T22:57:53.194Z,19.87
2019-05-01T23:00:34.590Z,21.48
2019-05-01T23:03:07.018Z,21.40
2019-05-01T23:05:35.874Z,21.00
2019-05-01T23:08:05.021Z,19.17
2019-05-01T23:10:34.142Z,20.27
2019-05-01T23:13:03.324Z,25.20
2019-05-01T23:15:33.104Z,17.48
2019-05-01T23:18:02.257Z,18.95
2019-05-01T23:20:34.780Z,16.25
2019-05-01T23:23:02.183Z,19.40
2019-05-01T23:25:31.271Z,15.95
2019-05-01T23:28:04.159Z,20.37
2019-05-01T23:30:31.305Z,16.52
2019-05-01T23:33:00.394Z,16.07
2019-05-01T23:35:29.482Z,20.10
2019-05-01T23:37:58.570Z,12.40
2019-05-01T23:40:27.823Z,18.23
2019-05-01T23:42:57.075Z,18.90
2019-05-01T23:45:26.226Z,17.40
2019-05-01T23:47:55.328Z,17.27
2019-05-01T23:50:24.417Z,14.23
2019-05-01T23:52:53.602Z,14.47
2019-05-01T23:55:22.614Z,15.00
2019-05-01T23:57:51.702Z,15.18
